Time;durP1;ratioP1;P1;durP2;ratioP2;P2;SDS_P1;SDS_P2;PMS_P1;PMS_P2;Temp;Humidity;BMP_temperature;BMP_pressure;BME280_temperature;BME280_humidity;BME280_pressure;Samples;Min_cycle;Max_cycle;Signal;HPM_P1;HPM_P2
2022/09/29 00:00:00;;;;;;;8.23;3.33;;;10.70;99.90;;;;;;5042313;28;20029;-90
2022/09/29 00:02:25;;;;;;;8.70;3.40;;;10.70;99.90;;;;;;5060901;28;20049;-90
2022/09/29 00:04:52;;;;;;;9.25;3.53;;;10.70;99.90;;;;;;5060838;28;20041;-89
2022/09/29 00:07:17;;;;;;;5.63;3.85;;;10.70;99.90;;;;;;5044103;28;20036;-90
2022/09/29 00:09:43;;;;;;;4.57;3.00;;;10.60;99.90;;;;;;5056766;28;20025;-89
2022/09/29 00:12:09;;;;;;;5.45;3.60;;;10.60;99.90;;;;;;5037548;28;20041;-88
2022/09/29 00:14:34;;;;;;;6.63;3.05;;;10.60;99.90;;;;;;5037476;28;20029;-89
2022/09/29 00:17:00;;;;;;;6.18;3.80;;;10.60;99.90;;;;;;5037718;28;20029;-90
2022/09/29 00:19:27;;;;;;;5.75;3.60;;;10.60;99.90;;;;;;5055713;28;20056;-90
2022/09/29 00:21:53;;;;;;;5.57;3.33;;;10.60;99.90;;;;;;5042303;28;20495;-89
2022/09/29 00:24:19;;;;;;;5.85;3.30;;;10.50;99.90;;;;;;5041816;28;20029;-89
2022/09/29 00:26:45;;;;;;;5.53;3.47;;;10.50;99.90;;;;;;5041031;28;20029;-89
2022/09/29 00:29:11;;;;;;;4.40;3.63;;;10.50;99.90;;;;;;5038862;28;20033;-89
2022/09/29 00:31:37;;;;;;;4.75;3.45;;;10.50;99.90;;;;;;5054889;28;20145;-90
2022/09/29 00:34:02;;;;;;;4.85;3.58;;;10.50;99.90;;;;;;5037519;28;20029;-90
2022/09/29 00:36:28;;;;;;;5.65;3.47;;;10.50;99.90;;;;;;5036187;28;20025;-91
2022/09/29 00:38:55;;;;;;;6.93;3.20;;;10.40;99.90;;;;;;5054015;28;20067;-90
2022/09/29 00:41:33;;;;;;;4.30;3.20;;;10.40;99.90;;;;;;5053292;28;20044;-88
2022/09/29 00:44:00;;;;;;;4.88;3.65;;;10.40;99.90;;;;;;5053832;28;20120;-90
2022/09/29 00:46:52;;;;;;;5.72;3.92;;;10.40;99.90;;;;;;5053600;28;20484;-90
2022/09/29 00:49:40;;;;;;;5.82;3.15;;;10.30;99.90;;;;;;5053685;28;20013;-89
2022/09/29 00:52:26;;;;;;;5.75;3.30;;;10.30;99.90;;;;;;5053409;28;20033;-89
2022/09/29 00:54:57;;;;;;;5.65;3.90;;;10.30;99.90;;;;;;5054625;28;20465;-89
2022/09/29 00:57:32;;;;;;;4.10;3.30;;;10.30;99.90;;;;;;5053450;28;20021;-89
2022/09/29 01:00:08;;;;;;;6.65;3.10;;;10.20;99.90;;;;;;5053469;28;20487;-90
2022/09/29 01:02:37;;;;;;;4.25;3.22;;;10.20;99.90;;;;;;5053287;28;20127;-89
2022/09/29 01:05:07;;;;;;;7.03;3.42;;;10.20;99.90;;;;;;5053256;28;20025;-90
2022/09/29 01:07:32;;;;;;;5.55;3.38;;;10.20;99.90;;;;;;5053139;28;20074;-90
2022/09/29 01:09:59;;;;;;;5.47;3.38;;;10.20;99.90;;;;;;5054634;28;20033;-90
2022/09/29 01:12:25;;;;;;;4.60;3.65;;;10.10;99.90;;;;;;5036904;28;20037;-90
2022/09/29 01:14:53;;;;;;;5.22;3.30;;;10.10;99.90;;;;;;5053207;28;20535;-89
2022/09/29 01:17:19;;;;;;;5.57;3.22;;;10.10;99.90;;;;;;5053285;28;20063;-90
2022/09/29 01:20:03;;;;;;;6.68;3.95;;;10.10;99.90;;;;;;5053318;28;20025;-90
2022/09/29 01:23:01;;;;;;;4.93;3.45;;;10.00;99.90;;;;;;5053316;28;20021;-89
2022/09/29 01:26:05;;;;;;;5.45;3.78;;;10.00;99.90;;;;;;5052922;28;20468;-90
2022/09/29 01:28:58;;;;;;;4.63;3.50;;;10.00;99.90;;;;;;5053237;28;20059;-89
2022/09/29 01:31:59;;;;;;;5.07;3.38;;;10.00;99.90;;;;;;5053192;28;20087;-89
2022/09/29 01:34:51;;;;;;;6.18;3.60;;;9.90;99.90;;;;;;5018140;28;20088;-90
2022/09/29 01:37:45;;;;;;;7.25;3.33;;;9.90;99.90;;;;;;5053817;28;20029;-89
2022/09/29 01:40:36;;;;;;;6.60;3.53;;;9.80;99.90;;;;;;5052999;28;20029;-89
2022/09/29 01:43:08;;;;;;;4.27;3.00;;;9.80;99.90;;;;;;5033144;28;20045;-89
2022/09/29 01:45:41;;;;;;;4.82;3.28;;;9.80;99.90;;;;;;5053205;28;20271;-90
2022/09/29 01:48:28;;;;;;;6.57;4.50;;;9.80;99.90;;;;;;5056319;28;20029;-90
2022/09/29 01:50:57;;;;;;;4.05;2.95;;;9.80;99.90;;;;;;5057698;28;20017;-90
2022/09/29 01:53:49;;;;;;;4.80;3.25;;;9.70;99.90;;;;;;5057820;28;20056;-89
2022/09/29 01:56:17;;;;;;;;;;;9.70;99.90;;;;;;5057413;28;20021;-90
2022/09/29 01:58:53;;;;;;;8.90;3.20;;;9.70;99.90;;;;;;5057448;28;19905;-90
2022/09/29 02:01:22;;;;;;;6.45;3.25;;;9.60;99.90;;;;;;5057395;28;20064;-90
2022/09/29 02:03:57;;;;;;;5.55;3.03;;;9.60;99.90;;;;;;5057548;28;20109;-90
2022/09/29 02:06:28;;;;;;;6.40;3.40;;;9.60;99.90;;;;;;5056498;28;20025;-90
2022/09/29 02:08:55;;;;;;;;;;;9.60;99.90;;;;;;5056862;28;20033;-90
2022/09/29 02:11:21;;;;;;;11.25;3.40;;;9.50;99.90;;;;;;5057365;28;19964;-90
2022/09/29 02:14:10;;;;;;;5.88;3.17;;;9.50;99.90;;;;;;5057384;28;20503;-90
2022/09/29 02:16:42;;;;;;;5.10;3.25;;;9.50;99.90;;;;;;5056317;28;20025;-90
2022/09/29 02:19:17;;;;;;;5.45;3.22;;;9.50;99.90;;;;;;5056472;28;20025;-89
2022/09/29 02:21:43;;;;;;;5.38;3.50;;;9.50;99.90;;;;;;5055878;28;20040;-89
2022/09/29 02:24:11;;;;;;;7.50;3.47;;;9.50;99.90;;;;;;5057323;28;20415;-91
2022/09/29 02:26:36;;;;;;;4.75;3.08;;;9.40;99.90;;;;;;5056161;28;20018;-90
2022/09/29 02:29:04;;;;;;;6.68;3.53;;;9.40;99.90;;;;;;5057137;28;20440;-90
2022/09/29 02:31:31;;;;;;;4.45;3.08;;;9.40;99.90;;;;;;5039485;28;20037;-90
2022/09/29 02:33:57;;;;;;;6.03;3.30;;;9.40;99.90;;;;;;5055966;28;20033;-90
2022/09/29 02:36:29;;;;;;;8.80;3.40;;;9.40;99.90;;;;;;5056117;28;20033;-90
2022/09/29 02:39:29;;;;;;;7.05;3.17;;;9.30;99.90;;;;;;5056054;28;20025;-90
2022/09/29 02:42:20;;;;;;;8.40;3.28;;;9.30;99.90;;;;;;5055662;28;20029;-90
2022/09/29 02:45:12;;;;;;;6.90;3.30;;;9.30;99.90;;;;;;5055802;28;20104;-90
2022/09/29 02:48:13;;;;;;;4.50;3.20;;;9.30;99.90;;;;;;5056925;28;20025;-90
2022/09/29 02:50:57;;;;;;;5.15;3.30;;;9.30;99.90;;;;;;5055625;28;20031;-89
2022/09/29 02:53:41;;;;;;;4.85;3.72;;;9.20;99.90;;;;;;5056728;28;20045;-90
2022/09/29 02:56:16;;;;;;;7.07;3.42;;;9.20;99.90;;;;;;5056184;28;20075;-90
2022/09/29 02:58:45;;;;;;;5.97;3.25;;;9.10;99.90;;;;;;5056019;28;20025;-89
2022/09/29 03:01:13;;;;;;;7.63;3.25;;;9.20;99.90;;;;;;5056723;28;20032;-90
2022/09/29 03:03:39;;;;;;;4.60;2.83;;;9.10;99.90;;;;;;5055471;28;20025;-89
2022/09/29 03:06:05;;;;;;;5.38;2.90;;;9.10;99.90;;;;;;5038674;28;20371;-89
2022/09/29 03:08:32;;;;;;;6.35;3.00;;;9.10;99.90;;;;;;5055278;28;20176;-90
2022/09/29 03:10:58;;;;;;;4.90;2.92;;;9.00;99.90;;;;;;5056245;28;20025;-91
2022/09/29 03:13:24;;;;;;;5.88;3.05;;;9.00;99.90;;;;;;5038946;28;20124;-90
2022/09/29 03:15:49;;;;;;;8.90;4.05;;;9.00;99.90;;;;;;5038459;28;20526;-90
2022/09/29 03:18:15;;;;;;;8.00;4.18;;;9.00;99.90;;;;;;5038250;28;20119;-90
2022/09/29 03:20:41;;;;;;;8.65;4.05;;;9.00;99.90;;;;;;5038953;28;20060;-90
2022/09/29 03:23:06;;;;;;;6.97;4.40;;;8.90;99.90;;;;;;5038517;28;20462;-90
2022/09/29 03:25:32;;;;;;;6.68;4.00;;;8.90;99.90;;;;;;5054990;28;20039;-91
2022/09/29 03:27:58;;;;;;;7.72;4.18;;;8.90;99.90;;;;;;5038186;28;20036;-90
2022/09/29 03:30:24;;;;;;;7.63;4.85;;;8.90;99.90;;;;;;5038369;28;20358;-90
2022/09/29 03:32:49;;;;;;;6.88;4.70;;;8.90;99.90;;;;;;5054701;28;20132;-92
2022/09/29 03:35:15;;;;;;;8.18;5.15;;;8.90;99.90;;;;;;5038259;28;20021;-89
2022/09/29 03:37:41;;;;;;;7.47;4.80;;;8.90;99.90;;;;;;5054878;28;20480;-90
2022/09/29 03:40:07;;;;;;;7.07;5.13;;;8.90;99.90;;;;;;5038162;28;20036;-89
2022/09/29 03:42:33;;;;;;;7.22;4.72;;;8.90;99.90;;;;;;5054794;28;20063;-90
2022/09/29 03:44:59;;;;;;;8.45;5.38;;;8.90;99.90;;;;;;5038142;28;20025;-90
2022/09/29 03:47:25;;;;;;;7.93;5.88;;;8.80;99.90;;;;;;5054939;28;20071;-90
2022/09/29 03:49:50;;;;;;;6.50;5.10;;;8.80;99.90;;;;;;5054569;28;20075;-90
2022/09/29 03:52:16;;;;;;;7.55;4.95;;;8.80;99.90;;;;;;5038101;28;20041;-90
2022/09/29 03:54:42;;;;;;;7.10;4.95;;;8.80;99.90;;;;;;5054483;28;20017;-91
2022/09/29 03:57:07;;;;;;;12.65;5.68;;;8.80;99.90;;;;;;5037675;28;20025;-91
2022/09/29 03:59:33;;;;;;;11.23;5.03;;;8.80;99.90;;;;;;5037719;28;20444;-90
2022/09/29 04:01:58;;;;;;;7.80;5.05;;;8.70;99.90;;;;;;5037574;28;20053;-90
2022/09/29 04:04:24;;;;;;;7.32;4.68;;;8.70;99.90;;;;;;5054561;28;20029;-90
2022/09/29 04:06:50;;;;;;;7.20;5.18;;;8.70;99.90;;;;;;5037826;28;20025;-90
2022/09/29 04:09:15;;;;;;;6.40;4.93;;;8.70;99.90;;;;;;5054034;28;20025;-89
2022/09/29 04:11:41;;;;;;;9.43;4.93;;;8.70;99.90;;;;;;5053808;28;20041;-90
2022/09/29 04:14:06;;;;;;;8.63;4.93;;;8.70;99.90;;;;;;5053865;28;20025;-90
2022/09/29 04:16:32;;;;;;;6.07;4.30;;;8.60;99.90;;;;;;5055202;28;20029;-90
2022/09/29 04:18:58;;;;;;;5.07;3.85;;;8.60;99.90;;;;;;5054134;28;20488;-90
2022/09/29 04:21:23;;;;;;;5.35;3.90;;;8.60;99.90;;;;;;5037641;28;20029;-90
2022/09/29 04:23:49;;;;;;;6.20;3.55;;;8.60;99.90;;;;;;5037782;28;20036;-90
2022/09/29 04:26:18;;;;;;;13.23;4.00;;;8.60;99.90;;;;;;5037440;28;20485;-90
2022/09/29 04:28:43;;;;;;;7.15;3.50;;;8.60;99.90;;;;;;5037608;28;20017;-91
2022/09/29 04:31:09;;;;;;;7.78;3.50;;;8.60;99.90;;;;;;5037126;28;20518;-91
2022/09/29 04:33:35;;;;;;;8.50;3.60;;;8.60;99.90;;;;;;5037169;28;20041;-90
2022/09/29 04:36:00;;;;;;;6.75;3.08;;;8.60;99.90;;;;;;5037140;28;20021;-90
2022/09/29 04:38:26;;;;;;;4.18;3.30;;;8.60;99.90;;;;;;5037070;28;20048;-90
2022/09/29 04:40:53;;;;;;;14.43;3.67;;;8.50;99.90;;;;;;5053729;28;20133;-90
2022/09/29 04:43:19;;;;;;;8.35;3.42;;;8.50;99.90;;;;;;5053695;28;20029;-90
2022/09/29 04:45:44;;;;;;;10.85;3.67;;;8.50;99.90;;;;;;5037520;28;20083;-91
2022/09/29 04:48:10;;;;;;;13.30;3.78;;;8.50;99.90;;;;;;5053477;28;20111;-90
2022/09/29 04:50:36;;;;;;;7.28;3.75;;;8.50;99.90;;;;;;5053521;28;20462;-90
2022/09/29 04:53:02;;;;;;;6.97;3.92;;;8.50;99.90;;;;;;5053344;28;20041;-90
2022/09/29 04:55:27;;;;;;;5.43;4.15;;;8.50;99.90;;;;;;5053388;28;20530;-91
2022/09/29 04:57:53;;;;;;;5.10;3.95;;;8.50;99.90;;;;;;5036955;28;20021;-90
2022/09/29 05:00:19;;;;;;;5.95;4.25;;;8.50;99.90;;;;;;5036882;28;20486;-90
2022/09/29 05:02:45;;;;;;;6.00;3.90;;;8.50;99.90;;;;;;5054191;28;20041;-89
2022/09/29 05:05:11;;;;;;;5.13;3.25;;;8.50;99.90;;;;;;5039648;28;20178;-90
2022/09/29 05:07:39;;;;;;;5.35;3.97;;;8.40;99.90;;;;;;5041077;28;20029;-90
2022/09/29 05:10:05;;;;;;;14.95;4.20;;;8.40;99.90;;;;;;5057375;28;20025;-90
2022/09/29 05:12:31;;;;;;;6.65;3.58;;;8.40;99.90;;;;;;5038935;28;20068;-90
2022/09/29 05:14:57;;;;;;;4.25;3.38;;;8.40;99.90;;;;;;5055139;28;20035;-89
2022/09/29 05:17:22;;;;;;;5.72;3.45;;;8.40;99.90;;;;;;5056971;28;20033;-89
2022/09/29 05:19:48;;;;;;;5.10;3.58;;;8.40;99.90;;;;;;5064266;28;20028;-90
2022/09/29 05:22:14;;;;;;;14.27;4.60;;;8.40;99.90;;;;;;5058401;28;20381;-90
2022/09/29 05:24:40;;;;;;;12.40;3.97;;;8.40;99.90;;;;;;5059995;28;20017;-90
2022/09/29 05:27:05;;;;;;;7.43;3.67;;;8.40;99.90;;;;;;5057604;28;20550;-89
2022/09/29 05:29:31;;;;;;;4.68;3.42;;;8.40;99.90;;;;;;5057356;28;20048;-89
2022/09/29 05:31:57;;;;;;;4.55;3.70;;;8.30;99.90;;;;;;5040796;28;20473;-89
2022/09/29 05:34:22;;;;;;;6.10;3.60;;;8.30;99.90;;;;;;5040554;28;20047;-89
2022/09/29 05:36:48;;;;;;;12.45;4.13;;;8.30;99.90;;;;;;5040591;28;20487;-90
2022/09/29 05:39:14;;;;;;;10.52;4.25;;;8.30;99.90;;;;;;5040385;28;20088;-90
2022/09/29 05:41:40;;;;;;;7.20;4.18;;;8.30;99.90;;;;;;5057259;28;20025;-89
2022/09/29 05:44:06;;;;;;;6.50;4.13;;;8.30;99.90;;;;;;5040328;28;20116;-91
2022/09/29 05:46:32;;;;;;;5.68;4.10;;;8.20;99.90;;;;;;5057453;28;20032;-89
2022/09/29 05:48:57;;;;;;;14.75;4.05;;;8.20;99.90;;;;;;5040988;28;20056;-90
2022/09/29 05:51:25;;;;;;;6.32;3.75;;;8.20;99.90;;;;;;5057146;28;20041;-90
2022/09/29 05:53:51;;;;;;;5.55;3.75;;;8.20;99.90;;;;;;5057027;28;20495;-89
2022/09/29 05:56:19;;;;;;;4.30;3.45;;;8.20;99.90;;;;;;5057160;28;20029;-90
2022/09/29 05:58:45;;;;;;;4.47;3.80;;;8.10;99.90;;;;;;5056865;28;20089;-90
2022/09/29 06:01:13;;;;;;;5.40;4.05;;;8.10;99.90;;;;;;5056557;28;20028;-90
2022/09/29 06:03:40;;;;;;;6.13;4.40;;;8.10;99.90;;;;;;5056951;28;20021;-89
2022/09/29 06:06:11;;;;;;;5.35;4.25;;;8.20;99.90;;;;;;5057850;28;20025;-89
2022/09/29 06:08:37;;;;;;;6.22;5.07;;;8.10;99.90;;;;;;5056775;28;20036;-89
2022/09/29 06:11:08;;;;;;;5.80;4.68;;;8.10;99.90;;;;;;5057011;28;20377;-89
2022/09/29 06:13:37;;;;;;;7.07;5.53;;;8.10;99.90;;;;;;5040903;28;20028;-89
2022/09/29 06:16:03;;;;;;;6.63;5.13;;;8.10;99.90;;;;;;5056404;28;20028;-89
2022/09/29 06:18:31;;;;;;;17.30;5.80;;;8.10;99.90;;;;;;5039742;28;20259;-89
2022/09/29 06:21:05;;;;;;;6.22;4.97;;;8.10;99.90;;;;;;5056362;28;20021;-89
2022/09/29 06:23:32;;;;;;;5.85;4.72;;;8.10;99.90;;;;;;5057398;28;20032;-89
2022/09/29 06:26:00;;;;;;;8.43;4.90;;;8.00;99.90;;;;;;5056459;28;20032;-89
2022/09/29 06:28:27;;;;;;;6.03;4.80;;;8.00;99.90;;;;;;5057312;28;20075;-88
2022/09/29 06:31:02;;;;;;;7.28;6.00;;;8.00;99.90;;;;;;5056165;28;20089;-89
2022/09/29 06:33:29;;;;;;;10.32;6.97;;;8.00;99.90;;;;;;5054733;28;20025;-89
2022/09/29 06:38:40;;;;;;;8.75;6.28;;;8.00;99.90;;;;;;5056117;28;20451;-89
2022/09/29 06:41:07;;;;;;;7.00;5.90;;;8.00;99.90;;;;;;5056019;28;20040;-89
2022/09/29 06:43:33;;;;;;;8.27;6.80;;;8.10;99.90;;;;;;5039460;28;20090;-89
2022/09/29 06:45:58;;;;;;;8.55;6.90;;;8.10;99.90;;;;;;5039259;28;20033;-89
2022/09/29 06:48:24;;;;;;;14.43;7.88;;;8.00;99.90;;;;;;5055977;28;20459;-89
2022/09/29 06:50:50;;;;;;;14.30;8.27;;;8.10;99.90;;;;;;5041127;28;20114;-89
2022/09/29 06:53:16;;;;;;;10.07;8.32;;;8.10;99.90;;;;;;5055782;28;20084;-89
2022/09/29 06:55:41;;;;;;;9.38;8.05;;;8.10;99.90;;;;;;5038827;28;20045;-89
2022/09/29 06:58:07;;;;;;;11.48;8.95;;;8.10;99.90;;;;;;5056055;28;20036;-89
2022/09/29 07:00:33;;;;;;;15.65;9.35;;;8.10;99.90;;;;;;5055816;28;20025;-89
2022/09/29 07:02:59;;;;;;;10.82;8.38;;;8.10;99.90;;;;;;5055310;28;20143;-89
2022/09/29 07:05:25;;;;;;;9.88;8.40;;;8.10;99.90;;;;;;5056363;28;20021;-88
2022/09/29 07:07:51;;;;;;;15.52;9.30;;;8.10;99.90;;;;;;5039391;28;20040;-90
2022/09/29 07:10:17;;;;;;;12.05;9.02;;;8.20;99.90;;;;;;5038965;28;20035;-90
2022/09/29 07:12:45;;;;;;;10.75;9.15;;;8.20;99.90;;;;;;5055737;28;20104;-89
2022/09/29 07:15:12;;;;;;;10.02;8.60;;;8.20;99.90;;;;;;5039160;28;20033;-90
2022/09/29 07:17:38;;;;;;;11.35;8.60;;;8.20;99.90;;;;;;5038620;28;20059;-89
2022/09/29 07:20:04;;;;;;;13.48;9.00;;;8.20;99.90;;;;;;5055539;28;20052;-89
2022/09/29 07:22:29;;;;;;;14.35;9.07;;;8.30;99.90;;;;;;5038566;28;20093;-89
2022/09/29 07:24:55;;;;;;;23.35;9.38;;;8.30;99.90;;;;;;5038664;28;20093;-90
2022/09/29 07:27:23;;;;;;;40.25;11.15;;;8.30;99.90;;;;;;5038642;28;20111;-89
2022/09/29 07:29:52;;;;;;;22.60;11.10;;;8.30;99.90;;;;;;5039692;28;20094;-89
2022/09/29 07:32:18;;;;;;;48.50;11.85;;;8.30;99.90;;;;;;5055598;28;20029;-89
2022/09/29 07:34:44;;;;;;;11.80;9.70;;;8.40;99.90;;;;;;5055536;28;20021;-89
2022/09/29 07:37:10;;;;;;;14.13;11.65;;;8.30;99.90;;;;;;5039169;28;20119;-89
2022/09/29 07:39:36;;;;;;;18.35;13.82;;;8.40;99.90;;;;;;5038469;28;20032;-89
2022/09/29 07:42:02;;;;;;;27.70;14.68;;;8.40;99.90;;;;;;5055236;28;20469;-90
2022/09/29 07:44:30;;;;;;;14.38;12.75;;;8.40;99.90;;;;;;5055019;28;20461;-90
2022/09/29 07:46:56;;;;;;;17.75;14.13;;;8.40;99.90;;;;;;5038977;28;20087;-90
2022/09/29 07:49:22;;;;;;;24.13;13.68;;;8.40;99.90;;;;;;5054856;28;20400;-90
2022/09/29 07:51:48;;;;;;;18.77;13.77;;;8.40;99.90;;;;;;5054881;28;20033;-90
2022/09/29 07:54:14;;;;;;;34.42;15.95;;;8.50;99.90;;;;;;5054795;28;20025;-90
2022/09/29 07:56:39;;;;;;;17.30;14.07;;;8.50;99.90;;;;;;5038012;28;20064;-89
2022/09/29 07:59:05;;;;;;;20.65;16.45;;;8.50;99.90;;;;;;5054490;28;20072;-91
2022/09/29 08:01:31;;;;;;;17.95;15.55;;;8.60;99.90;;;;;;5054382;28;20060;-90
2022/09/29 08:03:57;;;;;;;24.52;16.98;;;8.60;99.90;;;;;;5054783;28;20033;-90
2022/09/29 08:06:25;;;;;;;22.67;17.67;;;8.60;99.90;;;;;;5037893;28;20037;-92
2022/09/29 08:08:51;;;;;;;21.33;16.55;;;8.60;99.90;;;;;;5038137;28;20025;-90
2022/09/29 08:11:19;;;;;;;19.95;15.73;;;8.70;99.90;;;;;;5054828;28;20061;-90
2022/09/29 08:13:46;;;;;;;19.48;16.00;;;8.70;99.90;;;;;;5059523;28;20112;-90
2022/09/29 08:16:13;;;;;;;20.63;16.35;;;8.80;99.90;;;;;;5054974;28;20107;-91
2022/09/29 08:18:40;;;;;;;20.75;16.42;;;8.80;99.90;;;;;;5055401;28;20107;-91
2022/09/29 08:21:06;;;;;;;20.23;16.65;;;8.80;99.90;;;;;;5059500;28;20024;-90
2022/09/29 08:23:37;;;;;;;21.35;16.65;;;8.90;99.90;;;;;;5062155;28;20029;-91
2022/09/29 08:26:12;;;;;;;19.20;16.63;;;9.00;99.90;;;;;;5054756;28;20036;-91
2022/09/29 08:28:39;;;;;;;21.88;17.77;;;9.00;99.90;;;;;;5054319;28;20025;-91
2022/09/29 08:31:10;;;;;;;22.88;18.20;;;9.00;99.90;;;;;;5055761;28;20082;-91
2022/09/29 08:33:37;;;;;;;23.27;19.17;;;9.10;99.90;;;;;;5056125;28;20082;-90
2022/09/29 08:36:05;;;;;;;22.60;19.98;;;9.10;99.90;;;;;;5038059;28;20381;-91
2022/09/29 08:38:31;;;;;;;21.85;18.17;;;9.20;99.90;;;;;;5056568;28;20032;-90
2022/09/29 08:41:03;;;;;;;24.35;19.85;;;9.30;99.90;;;;;;5062478;28;20029;-88
2022/09/29 08:43:40;;;;;;;25.42;21.25;;;9.30;99.90;;;;;;5063155;28;20461;-90
2022/09/29 08:46:27;;;;;;;23.08;19.15;;;9.30;99.90;;;;;;5059617;28;20036;-90
2022/09/29 08:48:55;;;;;;;23.20;19.05;;;9.40;99.90;;;;;;5065325;28;20025;-89
2022/09/29 08:51:32;;;;;;;20.98;18.23;;;9.40;99.90;;;;;;5051496;28;20424;-89
2022/09/29 08:54:05;;;;;;;24.90;20.83;;;9.50;99.90;;;;;;5056254;28;20488;-90
2022/09/29 08:56:32;;;;;;;22.73;19.92;;;9.50;99.90;;;;;;5053411;28;20074;-90
2022/09/29 08:58:58;;;;;;;24.13;20.15;;;9.60;99.90;;;;;;5053400;28;20029;-89
2022/09/29 09:01:27;;;;;;;21.98;19.13;;;9.60;99.90;;;;;;5036678;28;20063;-89
2022/09/29 09:03:58;;;;;;;23.67;20.35;;;9.60;99.90;;;;;;5054084;28;20104;-89
2022/09/29 09:06:29;;;;;;;22.50;19.77;;;9.70;99.90;;;;;;5054590;28;20051;-90
2022/09/29 09:09:07;;;;;;;24.13;20.17;;;9.80;99.90;;;;;;5053554;28;20021;-90
2022/09/29 09:11:58;;;;;;;21.05;18.33;;;9.80;99.90;;;;;;5053478;28;20473;-89
2022/09/29 09:14:41;;;;;;;23.07;19.50;;;9.90;99.90;;;;;;5053520;28;20025;-89
2022/09/29 09:17:21;;;;;;;21.05;18.52;;;10.00;99.90;;;;;;5053909;28;20350;-89
2022/09/29 09:20:11;;;;;;;22.42;19.58;;;10.00;99.90;;;;;;5054573;28;20025;-89
2022/09/29 09:22:55;;;;;;;25.27;19.65;;;10.10;99.90;;;;;;5053546;28;20109;-90
2022/09/29 09:25:33;;;;;;;29.38;22.65;;;10.20;99.90;;;;;;5053703;28;20424;-90
2022/09/29 09:28:13;;;;;;;28.50;20.48;;;10.30;99.90;;;;;;5054412;28;20051;-90
2022/09/29 09:30:47;;;;;;;26.00;21.07;;;10.40;99.90;;;;;;5053079;28;20029;-89
2022/09/29 09:33:29;;;;;;;27.00;22.58;;;10.40;99.90;;;;;;5053255;28;20125;-89
2022/09/29 09:36:01;;;;;;;23.15;19.33;;;10.50;99.90;;;;;;5053143;28;20427;-89
2022/09/29 09:38:52;;;;;;;27.67;21.85;;;10.60;99.90;;;;;;5053070;28;20036;-89
2022/09/29 09:41:22;;;;;;;26.83;21.77;;;10.70;99.90;;;;;;5052936;28;20051;-89
2022/09/29 09:43:53;;;;;;;25.80;20.05;;;10.80;99.90;;;;;;5053043;28;20061;-89
2022/09/29 09:46:28;;;;;;;28.27;22.30;;;10.90;99.90;;;;;;5053288;28;20017;-89
2022/09/29 09:48:59;;;;;;;25.48;20.65;;;11.00;99.90;;;;;;5052641;28;20029;-89
2022/09/29 09:51:31;;;;;;;21.48;19.23;;;11.00;99.90;;;;;;5052949;28;20084;-89
2022/09/29 09:54:02;;;;;;;23.80;21.20;;;11.20;99.90;;;;;;5052939;28;20033;-89
2022/09/29 09:57:00;;;;;;;23.88;19.88;;;11.20;99.90;;;;;;5052977;28;20487;-89
2022/09/29 09:59:37;;;;;;;17.75;15.52;;;11.30;99.90;;;;;;5054023;28;20044;-89
2022/09/29 10:02:03;;;;;;;18.85;16.17;;;11.50;99.90;;;;;;5054141;28;20056;-89
2022/09/29 10:04:30;;;;;;;19.95;17.08;;;11.50;99.90;;;;;;5053916;28;20025;-89
2022/09/29 10:06:56;;;;;;;19.92;17.20;;;11.60;99.90;;;;;;5036239;28;20036;-89
2022/09/29 10:09:22;;;;;;;19.00;16.27;;;11.70;99.90;;;;;;5056125;28;20043;-88
2022/09/29 10:11:47;;;;;;;19.38;17.10;;;11.80;99.90;;;;;;5039614;28;20466;-88
2022/09/29 10:14:25;;;;;;;21.75;17.00;;;11.80;99.90;;;;;;5039776;28;20057;-89
2022/09/29 10:17:04;;;;;;;18.85;16.83;;;12.00;99.90;;;;;;5057313;28;20021;-88
2022/09/29 10:20:00;;;;;;;19.80;15.10;;;12.00;99.90;;;;;;5056422;28;20029;-89
2022/09/29 10:22:27;;;;;;;17.90;15.00;;;12.20;99.90;;;;;;5056555;28;20029;-88
2022/09/29 10:25:13;;;;;;;17.20;14.30;;;12.20;99.90;;;;;;5057074;28;20022;-88
2022/09/29 10:27:52;;;;;;;16.73;13.73;;;12.30;99.90;;;;;;5057193;28;20021;-94
2022/09/29 10:30:21;;;;;;;16.50;13.45;;;12.40;99.90;;;;;;5056307;28;20473;-88
2022/09/29 10:32:47;;;;;;;23.77;15.13;;;12.50;99.90;;;;;;5056652;28;20115;-88
2022/09/29 10:35:22;;;;;;;16.73;13.18;;;12.50;99.90;;;;;;5055939;28;20060;-88
2022/09/29 10:38:04;;;;;;;14.70;12.40;;;12.70;99.90;;;;;;5055923;28;20021;-88
2022/09/29 10:40:30;;;;;;;15.50;12.32;;;12.80;99.90;;;;;;5056035;28;20049;-88
2022/09/29 10:42:56;;;;;;;13.98;11.65;;;12.80;99.90;;;;;;5055507;28;20439;-88
2022/09/29 10:45:28;;;;;;;13.48;11.55;;;13.00;99.90;;;;;;5059836;28;20040;-88
2022/09/29 10:47:57;;;;;;;13.98;11.68;;;13.00;99.90;;;;;;5055792;28;20067;-89
2022/09/29 10:50:29;;;;;;;12.73;9.65;;;13.20;99.90;;;;;;5057016;28;20025;-89
2022/09/29 10:53:01;;;;;;;12.23;8.75;;;13.30;99.90;;;;;;5056759;28;20029;-89
2022/09/29 10:55:28;;;;;;;12.75;8.70;;;13.40;99.90;;;;;;5056019;28;20031;-88
2022/09/29 10:57:57;;;;;;;14.88;8.02;;;13.50;99.90;;;;;;5056548;28;20025;-89
2022/09/29 11:00:34;;;;;;;8.82;7.35;;;13.70;99.90;;;;;;5055922;28;20044;-89
2022/09/29 11:03:21;;;;;;;11.98;8.38;;;13.80;99.90;;;;;;5038781;28;20052;-89
2022/09/29 11:05:58;;;;;;;10.95;8.05;;;13.90;99.90;;;;;;5055865;28;20017;-89
2022/09/29 11:08:26;;;;;;;11.23;8.05;;;14.00;99.90;;;;;;5056376;28;20029;-89
2022/09/29 11:11:08;;;;;;;9.00;7.60;;;14.00;99.90;;;;;;5038986;28;20102;-89
2022/09/29 11:13:38;;;;;;;9.02;7.38;;;14.20;99.90;;;;;;5056350;28;20028;-89
2022/09/29 11:16:16;;;;;;;11.93;8.40;;;14.30;99.90;;;;;;5055140;28;20021;-88
2022/09/29 11:18:46;;;;;;;9.43;7.68;;;14.40;99.90;;;;;;5056042;28;20024;-88
2022/09/29 11:21:20;;;;;;;9.50;7.10;;;14.50;99.90;;;;;;5054485;28;20021;-89
2022/09/29 11:24:27;;;;;;;9.82;6.97;;;14.50;99.90;;;;;;5054878;28;20373;-91
2022/09/29 11:27:03;;;;;;;13.07;8.18;;;14.70;99.90;;;;;;5049370;28;20037;-89
2022/09/29 11:29:49;;;;;;;10.55;7.00;;;14.80;99.90;;;;;;5054821;28;20033;-88
2022/09/29 11:32:38;;;;;;;10.15;7.13;;;14.80;99.90;;;;;;5054593;28;20037;-88
2022/09/29 11:35:28;;;;;;;8.32;6.50;;;15.00;99.90;;;;;;5054714;28;20373;-89
2022/09/29 11:38:08;;;;;;;8.02;6.38;;;15.10;99.90;;;;;;5054594;28;20468;-88
2022/09/29 11:41:00;;;;;;;8.70;6.72;;;15.20;99.90;;;;;;5054841;28;20098;-89
2022/09/29 11:43:41;;;;;;;6.72;5.63;;;15.30;99.90;;;;;;5034017;28;20045;-89
2022/09/29 11:46:48;;;;;;;6.82;5.07;;;15.40;99.90;;;;;;5055811;28;20031;-89
2022/09/29 11:49:49;;;;;;;7.72;4.60;;;15.50;99.90;;;;;;5053464;28;20112;-89
2022/09/29 11:52:53;;;;;;;8.68;4.90;;;15.60;99.90;;;;;;5055525;28;20036;-88
2022/09/29 11:55:48;;;;;;;7.18;5.05;;;15.70;99.90;;;;;;5038474;28;20029;-89
2022/09/29 11:58:45;;;;;;;7.22;5.47;;;15.80;99.90;;;;;;5055498;28;20396;-89
2022/09/29 12:01:38;;;;;;;7.57;5.28;;;15.90;99.90;;;;;;5053798;28;20211;-89
2022/09/29 12:04:21;;;;;;;5.97;4.55;;;16.00;99.90;;;;;;5055301;28;20028;-89
2022/09/29 12:07:26;;;;;;;6.32;4.57;;;16.10;99.90;;;;;;5055076;28;20021;-88
2022/09/29 12:10:21;;;;;;;6.45;4.95;;;16.30;99.90;;;;;;5042344;28;20064;-90
2022/09/29 12:13:20;;;;;;;7.60;4.80;;;16.40;99.90;;;;;;5055100;28;20116;-88
2022/09/29 12:15:57;;;;;;;5.40;3.67;;;16.40;98.10;;;;;;5056015;28;20113;-88
2022/09/29 12:18:50;;;;;;;8.35;4.47;;;16.50;98.60;;;;;;5066326;28;20035;-88
2022/09/29 12:21:24;;;;;;;6.53;4.00;;;16.50;98.30;;;;;;5065840;28;20075;-88
2022/09/29 12:23:50;;;;;;;5.03;3.72;;;16.60;98.80;;;;;;5061803;28;20028;-88
2022/09/29 12:26:20;;;;;;;5.28;3.00;;;16.70;98.40;;;;;;5044888;28;20128;-88
2022/09/29 12:29:00;;;;;;;5.07;3.08;;;16.90;96.90;;;;;;5061721;28;20017;-89
2022/09/29 12:31:42;;;;;;;4.13;3.10;;;16.90;96.30;;;;;;5055919;28;20021;-88
2022/09/29 12:34:19;;;;;;;5.43;3.45;;;17.00;96.80;;;;;;5054900;28;20070;-89
2022/09/29 12:36:52;;;;;;;4.53;3.35;;;17.10;96.60;;;;;;5053730;28;20070;-88
2022/09/29 12:39:39;;;;;;;5.53;4.28;;;17.20;96.60;;;;;;5053345;28;20017;-89
2022/09/29 12:42:39;;;;;;;8.55;4.70;;;17.30;95.50;;;;;;5054716;28;20025;-89
2022/09/29 12:45:31;;;;;;;6.30;4.03;;;17.30;94.80;;;;;;5053537;28;20477;-89
2022/09/29 12:48:20;;;;;;;5.03;3.40;;;17.30;94.80;;;;;;5053338;28;20079;-91
2022/09/29 12:51:00;;;;;;;4.18;3.05;;;17.40;95.10;;;;;;5054294;28;20039;-88
2022/09/29 12:53:44;;;;;;;5.32;2.88;;;17.40;94.80;;;;;;5053216;28;20040;-87
2022/09/29 12:56:20;;;;;;;3.83;2.90;;;17.40;94.90;;;;;;5054340;28;20040;-87
2022/09/29 12:58:57;;;;;;;3.65;2.80;;;17.40;95.60;;;;;;5053236;28;20109;-88
2022/09/29 13:01:28;;;;;;;4.22;2.72;;;17.50;95.60;;;;;;5052967;28;20370;-88
2022/09/29 13:03:56;;;;;;;5.38;3.15;;;17.50;95.80;;;;;;5054384;28;20028;-88
2022/09/29 13:06:48;;;;;;;5.07;3.28;;;17.60;95.90;;;;;;5054413;28;20021;-88
2022/09/29 13:09:19;;;;;;;5.43;3.70;;;17.70;96.20;;;;;;5054136;28;20108;-88
2022/09/29 13:11:59;;;;;;;4.32;3.33;;;17.80;96.10;;;;;;5053350;28;20036;-88
2022/09/29 13:15:09;;;;;;;4.25;3.15;;;17.80;96.10;;;;;;5054361;28;20035;-88
2022/09/29 13:17:55;;;;;;;4.78;2.50;;;17.90;95.00;;;;;;5052759;28;20372;-88